Time;durP1;ratioP1;P1;durP2;ratioP2;P2;SDS_P1;SDS_P2;PMS_P1;PMS_P2;Temp;Humidity;BMP_temperature;BMP_pressure;BME280_temperature;BME280_humidity;BME280_pressure;Samples;Min_cycle;Max_cycle;Signal;HPM_P1;HPM_P2
2022/04/30 00:00:17;;;;;;;8.40;7.70;;;14.60;96.40;;;;;;6025694;23;20538;-89
2022/04/30 00:02:44;;;;;;;8.43;7.73;;;14.60;96.40;;;;;;6013052;23;20442;-89
2022/04/30 00:05:14;;;;;;;8.60;7.90;;;14.60;96.60;;;;;;6034640;23;20536;-89
2022/04/30 00:07:41;;;;;;;8.03;7.30;;;14.60;96.70;;;;;;6034314;23;20548;-88
2022/04/30 00:10:09;;;;;;;9.20;8.50;;;14.60;96.90;;;;;;6034164;23;20869;-89
2022/04/30 00:12:38;;;;;;;9.60;8.90;;;14.60;96.50;;;;;;6032060;23;20434;-88
2022/04/30 00:15:06;;;;;;;9.70;9.00;;;14.60;96.30;;;;;;6035391;23;20441;-88
2022/04/30 00:17:33;;;;;;;10.37;9.40;;;14.60;96.70;;;;;;6033316;23;20449;-88
2022/04/30 00:20:03;;;;;;;12.40;11.33;;;14.40;97.20;;;;;;6036849;23;20508;-87
2022/04/30 00:22:31;;;;;;;11.68;10.65;;;14.30;97.70;;;;;;6041735;23;20517;-87
2022/04/30 00:24:59;;;;;;;10.35;9.65;;;14.10;98.10;;;;;;6055096;23;20190;-88
2022/04/30 00:27:26;;;;;;;11.57;10.57;;;14.00;98.40;;;;;;6052599;23;20238;-88
2022/04/30 00:29:54;;;;;;;11.20;10.30;;;14.00;98.70;;;;;;6055711;23;20496;-88
2022/04/30 00:32:21;;;;;;;10.15;9.45;;;13.90;98.90;;;;;;6052881;23;20440;-88
2022/04/30 00:34:49;;;;;;;9.85;9.05;;;13.80;99.30;;;;;;6050608;23;20186;-89
2022/04/30 00:37:16;;;;;;;10.10;9.40;;;13.70;99.40;;;;;;6035234;23;20205;-88
2022/04/30 00:39:44;;;;;;;9.75;9.10;;;13.70;99.70;;;;;;6036163;23;20224;-89
2022/04/30 00:42:12;;;;;;;10.02;9.23;;;13.70;99.90;;;;;;6035736;23;20315;-88
2022/04/30 00:44:39;;;;;;;9.35;8.55;;;13.60;99.90;;;;;;6009921;23;20599;-89
2022/04/30 00:47:06;;;;;;;9.20;8.55;;;13.50;99.90;;;;;;6036144;23;20217;-88
2022/04/30 00:49:33;;;;;;;10.38;9.50;;;13.50;99.90;;;;;;6034630;23;20217;-88
2022/04/30 00:52:03;;;;;;;9.27;8.55;;;13.30;99.90;;;;;;6035065;23;20224;-87
2022/04/30 00:54:36;;;;;;;9.90;9.00;;;13.20;99.90;;;;;;6035861;23;20256;-89
2022/04/30 00:57:09;;;;;;;9.38;8.40;;;13.20;99.90;;;;;;6035968;23;20272;-87
2022/04/30 00:59:39;;;;;;;9.50;8.70;;;13.20;99.90;;;;;;6032979;23;20294;-88
2022/04/30 01:02:10;;;;;;;9.30;8.50;;;13.10;99.90;;;;;;6034290;23;20272;-88
2022/04/30 01:04:37;;;;;;;8.85;8.25;;;13.10;99.90;;;;;;6035150;23;20192;-88
2022/04/30 01:07:07;;;;;;;10.85;10.05;;;13.10;99.90;;;;;;6036955;23;20304;-89
2022/04/30 01:09:38;;;;;;;9.70;8.80;;;13.10;99.90;;;;;;6014584;23;20221;-87
2022/04/30 01:12:10;;;;;;;9.40;8.70;;;13.00;99.90;;;;;;6035161;23;20201;-88
2022/04/30 01:14:40;;;;;;;11.10;10.02;;;13.00;99.90;;;;;;6024687;23;20603;-89
2022/04/30 01:17:09;;;;;;;11.88;10.75;;;12.90;99.90;;;;;;6034323;23;20190;-86
2022/04/30 01:19:37;;;;;;;10.95;10.05;;;12.90;99.90;;;;;;6036504;23;20213;-89
2022/04/30 01:22:09;;;;;;;12.35;11.45;;;12.80;99.90;;;;;;6036556;23;20245;-88
2022/04/30 01:24:38;;;;;;;12.60;11.50;;;12.80;99.90;;;;;;6036369;23;20198;-88
2022/04/30 01:27:06;;;;;;;12.25;11.15;;;12.80;99.90;;;;;;6035914;23;20304;-87
2022/04/30 01:29:36;;;;;;;13.57;12.38;;;12.80;99.90;;;;;;6034263;23;20272;-87
2022/04/30 01:37:48;;;;;;;15.07;13.80;;;12.70;99.90;;;;;;5939920;24;21158;-90
2022/04/30 01:40:16;;;;;;;14.20;12.95;;;12.70;99.90;;;;;;5985553;23;20308;-88
2022/04/30 01:42:46;;;;;;;14.20;13.00;;;12.60;99.90;;;;;;6032965;23;20190;-88
2022/04/30 01:45:15;;;;;;;14.60;13.20;;;12.60;99.90;;;;;;6032495;23;20239;-87
2022/04/30 01:47:45;;;;;;;14.95;13.65;;;12.60;99.90;;;;;;6034490;23;20684;-89
2022/04/30 01:50:13;;;;;;;17.20;15.40;;;12.60;99.90;;;;;;6035063;23;20205;-88
2022/04/30 01:52:40;;;;;;;16.40;14.75;;;12.50;99.90;;;;;;6033185;23;20193;-88
2022/04/30 01:55:08;;;;;;;15.43;14.05;;;12.50;99.90;;;;;;6025673;23;20666;-89
2022/04/30 01:57:39;;;;;;;15.60;14.20;;;12.50;99.90;;;;;;6023758;23;20244;-88
2022/04/30 02:00:08;;;;;;;16.63;14.88;;;12.50;99.90;;;;;;6028315;23;20272;-88
2022/04/30 02:02:36;;;;;;;16.73;15.23;;;12.50;99.90;;;;;;6032999;23;20193;-89
2022/04/30 02:05:07;;;;;;;16.25;14.93;;;12.50;99.90;;;;;;6033978;23;20248;-88
2022/04/30 02:07:37;;;;;;;17.60;15.75;;;12.50;99.90;;;;;;6034959;23;20214;-88
2022/04/30 02:10:07;;;;;;;17.83;16.13;;;12.50;99.90;;;;;;6033589;23;20676;-88
2022/04/30 02:12:35;;;;;;;17.48;15.98;;;12.40;99.90;;;;;;6029702;23;20291;-89
2022/04/30 02:15:05;;;;;;;17.23;15.52;;;12.40;99.90;;;;;;6034242;23;20212;-89
2022/04/30 02:17:36;;;;;;;18.42;16.38;;;12.40;99.90;;;;;;6035506;23;20209;-87
2022/04/30 02:20:24;;;;;;;18.08;16.30;;;12.30;99.90;;;;;;6033355;23;20197;-88
2022/04/30 02:22:53;;;;;;;17.67;16.08;;;12.30;99.90;;;;;;6033135;23;20271;-88
2022/04/30 02:25:21;;;;;;;19.45;17.55;;;12.30;99.90;;;;;;6034556;23;20194;-88
2022/04/30 02:27:50;;;;;;;18.42;16.67;;;12.20;99.90;;;;;;6034442;23;20569;-88
2022/04/30 02:30:21;;;;;;;18.63;16.83;;;12.20;99.90;;;;;;6033151;23;20739;-87
2022/04/30 02:32:50;;;;;;;18.83;17.02;;;12.20;99.90;;;;;;6033239;23;20224;-86
2022/04/30 02:35:19;;;;;;;18.23;16.42;;;12.20;99.90;;;;;;6032297;23;20264;-87
2022/04/30 02:37:48;;;;;;;18.65;16.65;;;12.20;99.90;;;;;;6034368;23;20288;-87
2022/04/30 02:40:16;;;;;;;19.75;17.85;;;12.20;99.90;;;;;;6032382;23;20198;-87
2022/04/30 02:42:44;;;;;;;18.73;16.80;;;12.20;99.90;;;;;;6030948;23;20202;-87
2022/04/30 02:45:11;;;;;;;19.02;16.85;;;12.20;99.90;;;;;;6033699;23;20657;-87
2022/04/30 02:47:40;;;;;;;20.20;18.10;;;12.20;99.90;;;;;;6031260;23;20213;-87
2022/04/30 02:50:10;;;;;;;19.08;17.27;;;12.20;99.90;;;;;;6031817;23;20218;-87
2022/04/30 02:52:37;;;;;;;19.08;17.08;;;12.10;99.90;;;;;;6032339;23;20297;-87
2022/04/30 02:55:06;;;;;;;18.38;16.50;;;12.10;99.90;;;;;;6034113;23;20193;-87
2022/04/30 02:59:53;;;;;;;19.42;17.52;;;12.00;99.90;;;;;;6031658;23;20216;-86
2022/04/30 03:00:28;;;;;;;18.80;16.90;;;12.00;99.90;;;;;;6032957;23;20189;-87
2022/04/30 03:02:56;;;;;;;20.38;18.17;;;12.00;99.90;;;;;;6032891;23;20190;-87
2022/04/30 03:05:24;;;;;;;20.45;18.25;;;11.90;99.90;;;;;;6033550;23;20182;-85
2022/04/30 03:07:53;;;;;;;21.42;19.25;;;11.90;99.90;;;;;;6028001;23;20596;-87
2022/04/30 03:10:20;;;;;;;20.77;18.52;;;11.90;99.90;;;;;;6033097;23;20296;-86
2022/04/30 03:12:48;;;;;;;20.10;18.13;;;11.90;99.90;;;;;;6033221;23;20209;-88
2022/04/30 03:15:17;;;;;;;20.98;18.80;;;11.90;99.90;;;;;;6019269;23;20219;-87
2022/04/30 03:23:15;;;;;;;22.42;19.20;;;11.70;99.90;;;;;;6027785;23;20196;-87
2022/04/30 03:25:44;;;;;;;24.38;20.05;;;11.70;99.90;;;;;;6035186;23;20228;-88
2022/04/30 03:28:11;;;;;;;22.48;20.27;;;11.70;99.90;;;;;;6041760;23;20248;-88
2022/04/30 03:30:38;;;;;;;22.77;20.48;;;11.70;99.90;;;;;;6038851;23;20629;-87
2022/04/30 03:33:08;;;;;;;22.77;20.08;;;11.70;99.90;;;;;;6038321;23;20200;-88
2022/04/30 03:35:38;;;;;;;25.38;21.98;;;11.70;99.90;;;;;;6023825;23;20197;-87
2022/04/30 03:38:06;;;;;;;25.42;21.77;;;11.60;99.90;;;;;;6006305;23;20437;-87
2022/04/30 03:40:34;;;;;;;25.65;21.63;;;11.60;99.90;;;;;;6020455;23;20187;-88
2022/04/30 03:43:01;;;;;;;25.25;22.73;;;11.60;99.90;;;;;;6032172;23;20207;-87
2022/04/30 03:45:28;;;;;;;26.85;22.65;;;11.50;99.90;;;;;;6032738;23;20215;-87
2022/04/30 03:47:55;;;;;;;26.50;23.55;;;11.50;99.90;;;;;;6034149;23;20217;-87
2022/04/30 03:50:22;;;;;;;24.30;21.70;;;11.50;99.90;;;;;;6033970;23;20259;-87
2022/04/30 03:52:51;;;;;;;24.50;21.98;;;11.50;99.90;;;;;;6033792;23;20339;-87
2022/04/30 03:55:19;;;;;;;26.38;23.58;;;11.40;99.90;;;;;;6031400;23;20272;-87
2022/04/30 03:57:45;;;;;;;27.27;23.60;;;11.50;99.90;;;;;;6024764;23;20608;-86
2022/04/30 04:00:14;;;;;;;27.20;23.30;;;11.40;99.90;;;;;;6024099;23;20216;-86
2022/04/30 04:02:42;;;;;;;25.05;22.30;;;11.30;99.90;;;;;;6034251;23;20649;-87
2022/04/30 04:05:12;;;;;;;27.15;24.27;;;11.40;99.90;;;;;;6035378;23;20197;-86
2022/04/30 04:07:39;;;;;;;29.27;23.55;;;11.30;99.90;;;;;;6034724;23;20298;-87
2022/04/30 04:10:09;;;;;;;27.70;24.15;;;11.30;99.90;;;;;;6033857;23;20664;-87
2022/04/30 04:12:37;;;;;;;26.38;23.67;;;11.20;99.90;;;;;;6034240;23;20189;-87
2022/04/30 04:17:50;;;;;;;28.75;24.60;;;11.20;99.90;;;;;;6035969;23;20243;-88
2022/04/30 04:20:17;;;;;;;29.23;26.10;;;11.20;99.90;;;;;;6035927;23;20600;-88
2022/04/30 04:22:45;;;;;;;33.25;26.83;;;11.10;99.90;;;;;;6035161;23;20645;-88
2022/04/30 04:27:58;;;;;;;30.50;27.40;;;11.10;99.90;;;;;;6058650;23;20220;-88
2022/04/30 04:30:27;;;;;;;29.92;26.83;;;11.00;99.90;;;;;;6038371;23;20209;-87
2022/04/30 04:32:55;;;;;;;32.28;25.67;;;11.00;99.90;;;;;;6048033;23;20190;-89
2022/04/30 04:35:23;;;;;;;31.60;27.05;;;11.00;99.90;;;;;;6060934;23;20211;-89
2022/04/30 04:37:50;;;;;;;31.38;27.67;;;10.90;99.90;;;;;;6036228;23;20295;-90
2022/04/30 04:40:20;;;;;;;31.25;28.02;;;10.90;99.90;;;;;;6035625;23;20230;-91
2022/04/30 04:42:47;;;;;;;34.47;29.05;;;10.90;99.90;;;;;;6034047;23;20272;-92
2022/04/30 04:45:15;;;;;;;31.60;27.73;;;11.00;99.90;;;;;;6031618;23;20280;-92
2022/04/30 04:47:43;;;;;;;32.40;27.55;;;10.90;99.90;;;;;;6036195;23;20212;-92
2022/04/30 04:50:13;;;;;;;36.95;29.02;;;11.00;99.90;;;;;;6036552;23;20681;-93
2022/04/30 04:52:40;;;;;;;36.03;28.75;;;10.90;99.90;;;;;;6037668;23;20239;-92
2022/04/30 04:55:07;;;;;;;33.58;29.27;;;10.90;99.90;;;;;;6036984;23;20192;-93
2022/04/30 04:57:37;;;;;;;28.25;25.25;;;10.90;99.90;;;;;;6036867;23;20224;-92
2022/04/30 05:00:05;;;;;;;30.40;26.67;;;10.90;99.90;;;;;;6036627;23;20347;-93
2022/04/30 05:02:32;;;;;;;29.58;25.15;;;10.90;99.90;;;;;;6035210;23;20240;-92
2022/04/30 05:04:59;;;;;;;29.63;26.42;;;11.00;99.90;;;;;;6024732;23;20211;-93
2022/04/30 05:07:26;;;;;;;27.40;24.35;;;11.00;99.90;;;;;;6026735;23;20231;-92
2022/04/30 05:09:53;;;;;;;33.13;26.45;;;11.10;99.90;;;;;;6028091;23;20575;-93
2022/04/30 05:12:21;;;;;;;29.10;25.85;;;11.10;99.90;;;;;;6054074;23;20369;-92
2022/04/30 05:14:52;;;;;;;29.75;25.95;;;11.10;99.90;;;;;;6053304;23;20217;-91
2022/04/30 05:17:19;;;;;;;29.13;26.13;;;11.20;99.90;;;;;;6054342;23;20560;-91
2022/04/30 05:19:58;;;;;;;29.92;25.88;;;11.20;99.90;;;;;;6043781;23;20204;-93
2022/04/30 05:22:27;;;;;;;27.45;24.50;;;11.20;99.90;;;;;;6041478;23;20212;-92
2022/04/30 05:25:19;;;;;;;28.92;25.83;;;11.10;99.90;;;;;;6014422;23;20224;-93
2022/04/30 05:27:46;;;;;;;27.05;24.20;;;11.10;99.90;;;;;;6039690;23;20208;-93
2022/04/30 05:30:15;;;;;;;30.02;25.83;;;11.20;99.90;;;;;;6045914;23;20212;-89
2022/04/30 05:32:43;;;;;;;30.85;27.17;;;11.20;99.90;;;;;;6044275;23;20189;-89
2022/04/30 05:35:10;;;;;;;29.45;26.35;;;11.30;99.90;;;;;;6037719;23;20196;-92
2022/04/30 05:37:39;;;;;;;28.42;25.48;;;11.20;99.90;;;;;;6031577;23;20408;-92
2022/04/30 05:40:08;;;;;;;35.45;27.85;;;11.30;99.90;;;;;;6045185;23;20528;-93
2022/04/30 05:42:34;;;;;;;27.35;24.45;;;11.30;99.90;;;;;;6029415;23;20190;-92
2022/04/30 05:45:02;;;;;;;30.45;27.25;;;11.30;99.90;;;;;;6037532;23;20274;-93
2022/04/30 05:47:30;;;;;;;26.98;24.08;;;11.30;99.90;;;;;;6044068;23;20300;-93
2022/04/30 05:49:57;;;;;;;27.77;24.77;;;11.40;99.90;;;;;;6039231;23;20267;-93
2022/04/30 05:52:24;;;;;;;27.13;24.20;;;11.40;99.90;;;;;;6036997;23;20255;-93
2022/04/30 05:54:51;;;;;;;27.38;24.35;;;11.40;99.90;;;;;;6034800;23;20280;-84
2022/04/30 05:57:18;;;;;;;29.27;26.00;;;11.30;99.90;;;;;;6032793;23;20901;-91
2022/04/30 05:59:45;;;;;;;31.30;27.15;;;11.40;99.90;;;;;;6037664;23;20193;-87
2022/04/30 06:02:12;;;;;;;32.80;26.75;;;11.30;99.90;;;;;;6032117;23;20224;-76
2022/04/30 06:04:40;;;;;;;31.90;26.95;;;11.00;99.90;;;;;;6017747;23;20203;-76
2022/04/30 06:07:08;;;;;;;31.42;28.00;;;11.00;99.90;;;;;;6020734;23;20209;-90
2022/04/30 06:09:34;;;;;;;31.65;27.95;;;11.00;99.90;;;;;;6022254;23;20237;-85
2022/04/30 06:12:01;;;;;;;29.85;26.75;;;11.00;99.90;;;;;;6019871;23;20300;-84
2022/04/30 06:14:30;;;;;;;31.23;27.92;;;10.90;99.90;;;;;;6028840;23;20196;-89
2022/04/30 06:16:57;;;;;;;30.20;27.10;;;10.90;99.90;;;;;;6020706;23;20214;-91
2022/04/30 06:19:24;;;;;;;31.48;28.20;;;11.00;99.90;;;;;;6019201;23;20258;-89
2022/04/30 06:21:53;;;;;;;29.35;26.20;;;11.10;99.90;;;;;;6035787;23;20377;-90
2022/04/30 06:24:20;;;;;;;30.27;27.17;;;11.10;99.90;;;;;;6024501;23;20273;-90
2022/04/30 06:26:47;;;;;;;27.95;25.15;;;11.20;99.90;;;;;;6031817;23;20221;-89
2022/04/30 06:29:15;;;;;;;28.05;25.15;;;11.30;99.90;;;;;;6030639;23;20197;-89
2022/04/30 06:31:42;;;;;;;29.88;26.70;;;11.40;99.90;;;;;;6035374;23;20225;-89
2022/04/30 06:34:10;;;;;;;28.05;25.13;;;11.30;99.90;;;;;;6021891;23;20632;-90
2022/04/30 06:36:37;;;;;;;28.10;25.08;;;11.40;99.90;;;;;;6036695;23;20201;-80
2022/04/30 06:39:06;;;;;;;27.50;24.50;;;11.50;99.90;;;;;;6021430;23;20208;-86
2022/04/30 06:41:33;;;;;;;26.15;23.35;;;11.70;99.90;;;;;;6029247;23;20188;-85
2022/04/30 06:44:00;;;;;;;26.50;23.70;;;11.80;99.90;;;;;;6023183;23;20269;-85
2022/04/30 06:46:28;;;;;;;25.88;23.30;;;11.80;99.90;;;;;;6026067;23;20197;-89
2022/04/30 06:48:55;;;;;;;24.92;22.42;;;11.90;99.90;;;;;;6027323;23;20255;-79
2022/04/30 06:51:22;;;;;;;20.05;17.95;;;12.00;99.90;;;;;;6018157;23;20223;-79
2022/04/30 06:59:22;;;;;;;22.65;20.35;;;12.30;99.90;;;;;;6025195;23;20282;-89
2022/04/30 07:01:57;;;;;;;23.50;21.30;;;12.40;99.90;;;;;;6031149;23;20181;-88
2022/04/30 07:04:26;;;;;;;22.75;20.65;;;12.40;99.90;;;;;;6027054;23;20192;-88
2022/04/30 07:06:53;;;;;;;22.65;20.45;;;12.50;99.90;;;;;;6022820;23;20276;-87
2022/04/30 07:09:21;;;;;;;23.17;21.02;;;12.50;99.90;;;;;;6024451;23;20209;-87
2022/04/30 07:11:49;;;;;;;20.70;18.70;;;12.60;99.90;;;;;;6023878;23;20237;-88
2022/04/30 07:14:16;;;;;;;23.88;20.02;;;12.60;99.90;;;;;;6031136;23;20276;-87
2022/04/30 07:16:43;;;;;;;21.40;18.63;;;12.70;99.90;;;;;;6020123;23;20206;-83
2022/04/30 07:19:10;;;;;;;21.52;19.50;;;12.80;99.90;;;;;;6018704;23;20248;-88
2022/04/30 07:21:37;;;;;;;21.70;19.60;;;12.60;99.90;;;;;;6013706;23;20192;-86
2022/04/30 07:24:05;;;;;;;21.23;19.35;;;12.60;99.90;;;;;;6019333;23;20201;-86
2022/04/30 07:26:32;;;;;;;20.75;18.75;;;12.60;99.90;;;;;;6021699;23;20191;-86
2022/04/30 07:29:01;;;;;;;21.15;19.17;;;12.60;99.90;;;;;;6022633;23;20229;-84
2022/04/30 07:31:28;;;;;;;20.75;18.85;;;12.60;99.90;;;;;;6018915;23;20208;-85
2022/04/30 07:33:55;;;;;;;21.63;19.52;;;12.50;99.90;;;;;;6016942;23;20209;-85
2022/04/30 07:36:23;;;;;;;21.70;19.50;;;12.70;99.90;;;;;;6013560;23;20243;-86
2022/04/30 07:38:50;;;;;;;21.10;19.00;;;12.70;99.90;;;;;;6021523;23;20575;-86
2022/04/30 07:41:17;;;;;;;20.40;18.45;;;12.70;99.90;;;;;;6021001;23;20530;-86
2022/04/30 07:43:44;;;;;;;21.10;19.15;;;12.70;99.90;;;;;;6018848;23;20316;-85
2022/04/30 07:46:13;;;;;;;19.60;17.63;;;12.70;99.90;;;;;;6017428;23;20195;-85
2022/04/30 07:48:41;;;;;;;21.02;19.08;;;12.60;99.90;;;;;;6013812;23;21820;-86
2022/04/30 07:51:14;;;;;;;19.15;17.38;;;12.70;99.90;;;;;;6022197;23;20296;-75
2022/04/30 07:53:41;;;;;;;18.85;17.02;;;12.60;99.90;;;;;;6012127;23;20189;-80
2022/04/30 07:56:09;;;;;;;18.23;16.60;;;12.50;99.90;;;;;;6017249;23;20264;-85
2022/04/30 07:58:36;;;;;;;17.98;16.42;;;12.40;99.90;;;;;;6013630;23;20213;-85
2022/04/30 08:01:02;;;;;;;18.45;16.88;;;12.40;99.90;;;;;;6015631;23;20194;-85
2022/04/30 08:03:37;;;;;;;18.08;16.40;;;12.40;99.90;;;;;;6022365;23;20190;-88
2022/04/30 08:06:05;;;;;;;18.63;16.92;;;12.50;99.90;;;;;;6030262;23;20247;-88
2022/04/30 08:08:44;;;;;;;19.33;17.60;;;12.50;99.90;;;;;;6029631;23;20207;-88
2022/04/30 08:11:12;;;;;;;17.15;15.75;;;12.60;99.90;;;;;;6023730;23;20213;-87
2022/04/30 08:13:40;;;;;;;18.42;16.73;;;12.70;99.90;;;;;;6008535;23;21026;-88
2022/04/30 08:16:09;;;;;;;18.95;17.25;;;12.80;99.90;;;;;;6014279;23;20604;-83
2022/04/30 08:18:38;;;;;;;18.67;17.08;;;12.90;99.90;;;;;;6023891;23;20217;-83
2022/04/30 08:21:06;;;;;;;17.88;16.27;;;13.00;99.90;;;;;;6026650;23;20189;-83
2022/04/30 08:23:34;;;;;;;17.88;16.38;;;12.90;99.90;;;;;;6029867;23;20185;-83
2022/04/30 08:26:01;;;;;;;17.92;16.38;;;13.00;99.90;;;;;;6021861;23;20197;-83
2022/04/30 08:28:28;;;;;;;18.23;16.58;;;13.00;99.90;;;;;;6026518;23;20668;-82
2022/04/30 08:30:56;;;;;;;19.15;17.45;;;13.10;99.90;;;;;;6027955;23;20192;-83
2022/04/30 08:33:23;;;;;;;19.10;17.50;;;13.00;99.90;;;;;;6024402;23;20719;-83
2022/04/30 08:35:51;;;;;;;20.15;18.25;;;13.00;99.90;;;;;;6023338;23;20281;-84
2022/04/30 08:38:18;;;;;;;18.85;17.20;;;12.90;99.90;;;;;;6019908;23;20253;-83
2022/04/30 08:40:45;;;;;;;18.90;17.17;;;12.90;99.90;;;;;;6022823;23;20190;-83
2022/04/30 08:43:15;;;;;;;18.38;16.77;;;12.80;99.90;;;;;;6026498;23;20194;-83
2022/04/30 08:45:44;;;;;;;19.55;17.85;;;12.60;99.90;;;;;;6028570;23;20210;-83
2022/04/30 08:48:13;;;;;;;21.13;19.15;;;12.60;99.90;;;;;;6020533;23;20221;-83
2022/04/30 08:50:42;;;;;;;21.00;18.90;;;12.50;99.90;;;;;;6017372;23;20217;-83
2022/04/30 08:53:11;;;;;;;20.52;18.73;;;12.50;99.90;;;;;;6024204;23;20222;-83
2022/04/30 08:55:39;;;;;;;19.38;17.38;;;12.50;99.90;;;;;;6019512;23;20235;-82
2022/04/30 08:58:06;;;;;;;21.35;19.25;;;12.60;99.90;;;;;;6026417;23;20209;-83
2022/04/30 09:00:40;;;;;;;21.13;19.20;;;12.50;99.90;;;;;;6023760;23;20277;-83
2022/04/30 09:03:07;;;;;;;20.08;18.17;;;12.60;99.90;;;;;;6023721;23;20208;-83
2022/04/30 09:05:36;;;;;;;18.63;17.00;;;12.60;99.90;;;;;;6016892;23;20201;-83
2022/04/30 09:08:05;;;;;;;19.08;17.27;;;12.60;99.90;;;;;;6008313;23;20806;-83
2022/04/30 09:10:36;;;;;;;18.60;17.10;;;12.60;99.90;;;;;;6018425;23;20276;-82
2022/04/30 09:13:07;;;;;;;17.98;16.40;;;12.70;99.90;;;;;;6030248;23;20300;-83
2022/04/30 09:15:35;;;;;;;18.05;16.55;;;12.80;99.90;;;;;;6011804;23;20216;-82
2022/04/30 09:18:04;;;;;;;16.95;15.45;;;12.80;99.90;;;;;;6020359;23;20212;-83
2022/04/30 09:20:41;;;;;;;16.70;15.20;;;12.90;99.90;;;;;;6008607;23;20205;-84
2022/04/30 09:23:09;;;;;;;16.27;14.88;;;13.00;99.90;;;;;;6018788;23;20188;-83
2022/04/30 09:25:37;;;;;;;13.73;12.63;;;13.10;99.90;;;;;;6015726;23;20634;-83
2022/04/30 09:28:05;;;;;;;12.82;11.82;;;13.10;99.90;;;;;;6022515;23;20209;-84
2022/04/30 09:30:32;;;;;;;11.35;10.45;;;13.00;99.90;;;;;;6024030;23;20552;-84
2022/04/30 09:33:00;;;;;;;11.15;10.20;;;12.80;99.90;;;;;;6026815;23;20688;-85
2022/04/30 09:38:17;;;;;;;12.13;11.23;;;12.80;99.90;;;;;;6027069;23;20879;-83
2022/04/30 09:40:55;;;;;;;11.98;11.07;;;12.70;99.90;;;;;;6022390;23;20185;-82
2022/04/30 09:43:29;;;;;;;11.50;10.60;;;12.60;99.90;;;;;;6029636;23;20817;-81
2022/04/30 09:45:59;;;;;;;11.32;10.27;;;12.60;99.90;;;;;;6017990;23;20193;-84
2022/04/30 09:54:00;;;;;;;11.55;10.65;;;12.30;99.90;;;;;;6008953;23;20215;-81
2022/04/30 09:56:38;;;;;;;11.13;10.25;;;12.20;99.90;;;;;;6014292;23;20216;-82
2022/04/30 09:59:08;;;;;;;11.48;10.57;;;12.10;99.90;;;;;;6027042;23;20269;-81
2022/04/30 10:01:36;;;;;;;11.48;10.52;;;12.00;99.90;;;;;;6008524;23;20190;-81
2022/04/30 10:04:08;;;;;;;10.63;9.73;;;12.10;99.90;;;;;;6022017;23;20193;-81
2022/04/30 10:06:37;;;;;;;10.02;9.23;;;12.10;99.90;;;;;;6024009;23;20344;-81
2022/04/30 10:09:09;;;;;;;10.48;9.65;;;12.10;99.90;;;;;;6019969;23;20291;-81
2022/04/30 10:11:47;;;;;;;9.90;9.20;;;12.20;99.90;;;;;;6025457;23;20182;-79
2022/04/30 10:14:31;;;;;;;9.75;8.95;;;12.20;99.90;;;;;;6021942;23;20249;-80
2022/04/30 10:17:12;;;;;;;9.05;8.32;;;12.10;99.90;;;;;;6027263;23;20296;-77
2022/04/30 10:19:39;;;;;;;7.82;7.22;;;12.20;99.90;;;;;;6013533;23;20181;-80
2022/04/30 10:22:11;;;;;;;8.63;7.93;;;12.00;99.90;;;;;;6027485;23;20660;-78
2022/04/30 10:24:43;;;;;;;9.02;8.27;;;11.90;99.90;;;;;;6023022;23;20226;-79
2022/04/30 10:27:12;;;;;;;8.75;7.95;;;11.90;99.90;;;;;;6021500;23;20288;-78
2022/04/30 10:29:38;;;;;;;8.95;8.25;;;11.90;99.90;;;;;;6014398;23;20223;-81
2022/04/30 10:32:06;;;;;;;8.32;7.72;;;11.90;99.90;;;;;;6027241;23;20644;-82
2022/04/30 10:34:33;;;;;;;7.80;7.20;;;11.90;99.90;;;;;;6031731;23;20327;-83
2022/04/30 10:37:04;;;;;;;8.65;7.85;;;12.00;99.90;;;;;;6026983;23;20292;-83
2022/04/30 10:39:31;;;;;;;7.47;6.97;;;12.00;99.90;;;;;;6028436;23;20202;-84
2022/04/30 10:41:58;;;;;;;6.72;6.22;;;12.10;99.90;;;;;;6017182;23;20224;-83
2022/04/30 10:44:31;;;;;;;7.00;6.40;;;12.10;99.90;;;;;;6023384;23;20269;-83
2022/04/30 10:47:09;;;;;;;6.40;5.90;;;12.00;99.90;;;;;;6024826;23;20209;-82
2022/04/30 10:49:37;;;;;;;6.13;5.72;;;12.10;99.90;;;;;;6025505;23;20667;-81
2022/04/30 10:52:04;;;;;;;6.30;5.80;;;11.90;99.90;;;;;;6021261;23;20216;-79
2022/04/30 10:54:34;;;;;;;6.55;6.00;;;12.00;99.90;;;;;;6021536;23;20224;-73
2022/04/30 10:57:05;;;;;;;7.20;6.70;;;12.10;99.90;;;;;;6021831;23;20308;-80
2022/04/30 10:59:34;;;;;;;7.05;6.55;;;12.30;99.90;;;;;;6027113;23;20181;-84
2022/04/30 11:02:01;;;;;;;6.03;5.60;;;12.40;99.90;;;;;;6027676;23;20649;-84
2022/04/30 11:04:28;;;;;;;6.40;5.90;;;12.40;99.90;;;;;;6024160;23;20210;-82
2022/04/30 11:06:57;;;;;;;5.75;5.30;;;12.40;99.90;;;;;;6014135;23;20209;-83
2022/04/30 11:09:24;;;;;;;5.75;5.25;;;12.40;99.90;;;;;;6015152;23;20198;-83
2022/04/30 11:11:51;;;;;;;4.85;4.55;;;12.50;99.90;;;;;;6025063;23;20577;-82
2022/04/30 11:14:20;;;;;;;7.30;5.05;;;12.50;99.90;;;;;;6028258;23;20190;-82
2022/04/30 11:16:50;;;;;;;5.30;4.97;;;12.50;99.90;;;;;;6026386;23;20213;-84
2022/04/30 11:19:19;;;;;;;5.20;4.85;;;12.50;99.90;;;;;;6032504;23;20198;-82
2022/04/30 11:21:50;;;;;;;4.85;4.55;;;12.60;99.90;;;;;;6031687;23;20189;-82
2022/04/30 11:24:25;;;;;;;4.93;4.63;;;12.80;99.90;;;;;;6011972;23;20649;-82
2022/04/30 11:26:56;;;;;;;5.20;4.80;;;12.90;99.90;;;;;;6018198;23;20220;-83
2022/04/30 11:29:23;;;;;;;5.40;5.00;;;13.20;99.90;;;;;;6014665;23;20188;-83
2022/04/30 11:31:53;;;;;;;5.72;5.30;;;13.40;99.90;;;;;;6017443;23;20285;-83
2022/04/30 11:34:21;;;;;;;6.15;5.75;;;13.60;99.90;;;;;;6025705;23;20241;-83
2022/04/30 11:36:51;;;;;;;6.07;5.68;;;13.70;99.90;;;;;;6032677;23;20256;-82
2022/04/30 11:39:19;;;;;;;5.50;5.10;;;13.90;99.90;;;;;;6028891;23;20233;-82
2022/04/30 11:41:48;;;;;;;5.60;5.10;;;14.10;99.90;;;;;;6008936;23;20443;-83
2022/04/30 11:44:17;;;;;;;6.17;5.57;;;14.30;99.90;;;;;;6029817;23;20958;-82
2022/04/30 11:46:45;;;;;;;5.80;5.40;;;14.50;99.90;;;;;;6022529;23;20475;-82
2022/04/30 11:49:17;;;;;;;5.60;5.13;;;14.60;99.90;;;;;;6019579;23;20441;-81
2022/04/30 11:51:45;;;;;;;4.60;4.30;;;14.50;99.90;;;;;;6027695;23;20528;-82
2022/04/30 11:54:14;;;;;;;5.20;4.90;;;14.40;99.90;;;;;;6028336;23;20477;-82
2022/04/30 11:56:43;;;;;;;5.40;4.80;;;14.40;99.90;;;;;;6020688;23;20233;-81
2022/04/30 11:59:10;;;;;;;5.00;4.70;;;14.50;99.90;;;;;;6028927;23;20528;-81
2022/04/30 12:01:39;;;;;;;4.63;4.33;;;14.60;99.90;;;;;;6020236;23;20806;-81
2022/04/30 12:04:11;;;;;;;5.50;5.07;;;14.60;99.90;;;;;;6020244;23;20515;-81
2022/04/30 12:06:43;;;;;;;4.60;4.30;;;14.70;99.90;;;;;;6016594;23;21032;-81
2022/04/30 12:09:17;;;;;;;5.28;4.88;;;14.70;99.90;;;;;;6024331;23;20452;-81
2022/04/30 12:11:47;;;;;;;5.30;5.00;;;14.80;99.90;;;;;;6015365;23;20268;-82
2022/04/30 12:14:13;;;;;;;5.57;5.20;;;14.90;99.90;;;;;;6029854;23;20829;-81
2022/04/30 12:16:42;;;;;;;5.15;4.85;;;14.90;99.90;;;;;;6024860;23;20547;-81
2022/04/30 12:25:06;;;;;;;4.37;4.07;;;15.40;99.90;;;;;;6026606;23;20447;-81
2022/04/30 12:27:34;;;;;;;3.97;3.77;;;15.60;99.90;;;;;;6030537;23;20974;-81
2022/04/30 12:30:09;;;;;;;4.50;4.17;;;15.60;99.90;;;;;;6014550;23;20449;-78
2022/04/30 12:32:47;;;;;;;4.93;4.53;;;15.60;99.90;;;;;;6014294;23;20482;-81
2022/04/30 12:35:15;;;;;;;5.23;4.83;;;15.60;99.90;;;;;;6021404;23;20454;-79
2022/04/30 12:37:44;;;;;;;6.17;5.77;;;15.60;99.90;;;;;;6018296;23;20564;-80
2022/04/30 12:40:11;;;;;;;5.70;5.30;;;15.40;99.90;;;;;;6027205;23;20545;-79
2022/04/30 12:42:40;;;;;;;5.70;5.30;;;15.20;99.90;;;;;;6020960;23;20442;-80
2022/04/30 12:45:08;;;;;;;5.82;5.43;;;15.00;99.90;;;;;;6030462;23;20442;-80
2022/04/30 12:47:35;;;;;;;6.73;6.23;;;14.80;99.90;;;;;;6027276;23;20206;-80
2022/04/30 12:50:02;;;;;;;7.07;6.57;;;14.70;99.90;;;;;;6022816;23;20450;-80
2022/04/30 12:52:29;;;;;;;8.00;7.50;;;14.40;99.90;;;;;;6026583;23;20526;-80
2022/04/30 12:54:57;;;;;;;7.60;7.00;;;14.30;99.90;;;;;;6016780;23;20472;-80
2022/04/30 12:57:24;;;;;;;8.67;8.07;;;14.00;99.90;;;;;;6018879;23;20456;-81
2022/04/30 12:59:53;;;;;;;8.50;7.90;;;13.80;99.90;;;;;;6032933;23;20444;-80
2022/04/30 13:02:22;;;;;;;8.90;8.30;;;13.70;99.90;;;;;;6031993;23;20257;-80
2022/04/30 13:04:51;;;;;;;9.00;8.30;;;13.60;99.90;;;;;;6028493;23;20594;-79
2022/04/30 13:07:18;;;;;;;9.18;8.38;;;13.40;99.90;;;;;;6020027;23;20209;-80
2022/04/30 13:15:16;;;;;;;11.15;10.35;;;13.30;99.90;;;;;;6020154;23;20533;-79
2022/04/30 13:17:44;;;;;;;11.55;10.70;;;13.20;99.90;;;;;;6016700;23;20212;-80
2022/04/30 13:20:12;;;;;;;12.18;11.23;;;12.90;99.90;;;;;;6031363;23;20213;-79
2022/04/30 13:22:39;;;;;;;12.05;11.10;;;12.70;99.90;;;;;;6017054;23;20194;-80